Time;durP1;ratioP1;P1;durP2;ratioP2;P2;SDS_P1;SDS_P2;PMS_P1;PMS_P2;Temp;Humidity;BMP_temperature;BMP_pressure;BME280_temperature;BME280_humidity;BME280_pressure;Samples;Min_cycle;Max_cycle;Signal;HPM_P1;HPM_P2
2022/08/13 00:00:21;;;;;;;11.77;3.95;;;;;;;18.07;100.00;165294.59;5012346;28;20046;-58
2022/08/13 00:02:46;;;;;;;5.70;1.90;;;;;;;18.07;100.00;165294.59;5013489;28;20021;-58
2022/08/13 00:05:11;;;;;;;4.45;1.65;;;;;;;18.06;100.00;165291.88;5012146;28;20080;-58
2022/08/13 00:07:37;;;;;;;6.05;2.15;;;;;;;18.03;100.00;165283.75;5013332;28;20060;-58
2022/08/13 00:10:07;;;;;;;5.20;2.25;;;;;;;18.02;100.00;165281.06;5011770;28;20030;-57
2022/08/13 00:15:27;;;;;;;3.83;1.77;;;;;;;17.98;100.00;165270.22;5031793;28;20519;-57
2022/08/13 00:17:54;;;;;;;2.42;1.90;;;;;;;18.03;100.00;165282.38;5032467;28;20025;-58
2022/08/13 00:20:22;;;;;;;5.47;2.05;;;;;;;18.02;100.00;165281.06;5031403;28;20508;-58
2022/08/13 00:22:48;;;;;;;4.03;1.65;;;;;;;18.02;100.00;165281.06;5033137;28;20028;-58
2022/08/13 00:25:14;;;;;;;5.07;1.60;;;;;;;18.03;100.00;165282.38;5022872;28;20107;-58
2022/08/13 00:27:47;;;;;;;12.77;2.97;;;;;;;18.05;100.00;165289.22;5012871;28;20127;-58
2022/08/13 00:30:15;;;;;;;5.20;1.92;;;;;;;18.10;100.00;165301.38;5012061;28;20038;-58
2022/08/13 00:32:41;;;;;;;;;;;;;;;18.12;100.00;165305.47;5013027;28;20473;-58
2022/08/13 00:35:07;;;;;;;2.75;1.83;;;;;;;18.14;100.00;165312.22;5011951;28;19919;-58
2022/08/13 00:37:32;;;;;;;5.90;1.95;;;;;;;18.16;100.00;165316.28;5012971;28;20100;-58
2022/08/13 00:39:58;;;;;;;5.47;1.85;;;;;;;18.16;100.00;165316.28;5011448;28;20110;-58
2022/08/13 00:42:27;;;;;;;3.70;1.83;;;;;;;18.13;100.00;165308.19;5012800;28;20026;-58
2022/08/13 00:44:53;;;;;;;5.53;2.35;;;;;;;18.10;100.00;165301.38;5011358;28;20484;-58
2022/08/13 00:50:05;;;;;;;2.00;1.70;;;;;;;18.03;100.00;165283.75;5031519;28;20044;-58
2022/08/13 00:52:40;;;;;;;1.95;1.75;;;;;;;17.98;100.00;165270.22;5028762;28;20037;-58
2022/08/13 00:55:10;;;;;;;5.35;3.00;;;;;;;17.93;100.00;165256.59;5011020;28;20034;-58
2022/08/13 00:57:36;;;;;;;3.20;2.13;;;;;;;17.88;100.00;165244.38;5012899;28;20101;-58
2022/08/13 01:00:11;;;;;;;4.00;1.65;;;;;;;17.85;100.00;165236.28;5011210;28;20497;-58
2022/08/13 01:02:38;;;;;;;15.20;4.32;;;;;;;17.77;100.00;165215.91;5011934;28;20088;-58
2022/08/13 01:05:04;;;;;;;4.40;2.45;;;;;;;17.81;100.00;165225.41;5010960;28;20038;-57
2022/08/13 01:07:30;;;;;;;2.40;2.20;;;;;;;17.82;100.00;165226.78;5012379;28;20042;-58
2022/08/13 01:09:55;;;;;;;4.25;1.75;;;;;;;17.86;100.00;165237.59;5010830;28;20017;-58
2022/08/13 01:12:23;;;;;;;3.92;1.58;;;;;;;17.91;100.00;165251.16;5012470;28;20038;-58
2022/08/13 01:14:52;;;;;;;5.30;3.13;;;;;;;17.94;100.00;165259.31;5012407;28;20114;-58
2022/08/13 01:17:22;;;;;;;5.28;2.28;;;;;;;17.96;100.00;165264.78;5031954;28;20045;-58
2022/08/13 01:19:49;;;;;;;5.05;2.85;;;;;;;17.96;100.00;165264.78;5030741;28;20105;-58
2022/08/13 01:22:15;;;;;;;3.55;1.83;;;;;;;17.95;100.00;165262.06;5031988;28;20027;-58
2022/08/13 01:24:41;;;;;;;5.30;2.05;;;;;;;17.94;100.00;165259.31;5012519;28;20116;-58
2022/08/13 01:27:08;;;;;;;6.03;1.80;;;;;;;17.90;100.00;165249.81;5011904;28;20052;-58
2022/08/13 01:29:35;;;;;;;2.40;1.98;;;;;;;17.82;100.00;165226.78;5017781;28;20041;-58
2022/08/13 01:32:00;;;;;;;2.90;1.33;;;;;;;17.73;100.00;165205.09;5031567;28;20719;-58
2022/08/13 01:34:26;;;;;;;5.45;2.55;;;;;;;17.66;100.00;165184.72;5029666;28;20049;-58
2022/08/13 01:36:53;;;;;;;3.40;1.40;;;;;;;17.62;100.00;165173.91;5031514;28;20067;-58
2022/08/13 01:39:18;;;;;;;5.78;2.00;;;;;;;17.58;100.00;165164.44;5029994;28;20590;-57
2022/08/13 01:41:44;;;;;;;4.75;2.42;;;;;;;17.59;100.00;165167.16;5031711;28;20022;-58
2022/08/13 01:44:09;;;;;;;5.53;2.03;;;;;;;17.57;100.00;165161.72;5030055;28;20033;-58
2022/08/13 01:52:08;;;;;;;1.95;1.70;;;;;;;17.53;100.00;165150.88;5031407;28;20041;-57
2022/08/13 01:54:35;;;;;;;2.28;1.70;;;;;;;17.48;100.00;165137.28;5013094;28;20404;-58
2022/08/13 01:57:03;;;;;;;6.60;2.03;;;;;;;17.44;100.00;165129.19;5011931;28;20381;-58
2022/08/13 01:59:29;;;;;;;16.80;3.92;;;;;;;17.39;100.00;165115.59;5009690;28;20441;-58
2022/08/13 02:01:57;;;;;;;2.30;1.92;;;;;;;17.35;100.00;165104.78;5011093;28;20481;-57
2022/08/13 02:04:22;;;;;;;5.70;1.77;;;;;;;17.29;100.00;165088.53;5021712;28;20049;-58
2022/08/13 02:06:48;;;;;;;22.13;3.03;;;;;;;17.23;100.00;165072.28;5031184;28;20033;-58
2022/08/13 02:09:14;;;;;;;6.25;1.77;;;;;;;17.17;100.00;165057.38;5029640;28;20056;-58
2022/08/13 02:11:39;;;;;;;3.25;1.65;;;;;;;17.15;100.00;165051.94;5031053;28;20022;-58
2022/08/13 02:14:05;;;;;;;2.20;2.00;;;;;;;17.13;100.00;165046.50;5029914;28;20029;-58
2022/08/13 02:16:36;;;;;;;3.67;2.72;;;;;;;17.11;100.00;165042.44;5030623;28;20049;-57
2022/08/13 02:19:06;;;;;;;7.55;3.58;;;;;;;17.07;100.00;165030.25;5018492;28;20123;-58
2022/08/13 02:21:34;;;;;;;1.90;1.80;;;;;;;17.08;100.00;165034.34;5016677;28;20026;-58
2022/08/13 02:24:00;;;;;;;4.10;1.70;;;;;;;17.06;100.00;165027.53;5017942;28;20620;-58
2022/08/13 02:26:29;;;;;;;10.43;2.30;;;;;;;17.06;100.00;165027.53;5011178;28;20025;-58
2022/08/13 02:28:56;;;;;;;4.53;2.47;;;;;;;17.04;100.00;165023.47;5009835;28;20053;-58
2022/08/13 02:31:22;;;;;;;4.28;2.42;;;;;;;17.02;100.00;165018.03;5010640;28;20066;-57
2022/08/13 02:33:48;;;;;;;2.33;2.03;;;;;;;16.98;100.00;165005.91;5011568;28;20608;-57
2022/08/13 02:36:18;;;;;;;6.10;2.28;;;;;;;16.94;100.00;164997.75;5009779;28;20073;-58
2022/08/13 02:38:43;;;;;;;3.88;2.58;;;;;;;16.91;100.00;164988.22;5011100;28;20034;-58
2022/08/13 02:43:54;;;;;;;4.40;2.30;;;;;;;16.79;100.00;164958.38;5020611;28;20394;-56
2022/08/13 02:46:21;;;;;;;2.17;1.88;;;;;;;16.76;100.00;164950.28;5019293;28;20065;-57
2022/08/13 02:48:48;;;;;;;7.80;2.30;;;;;;;16.70;100.00;164934.03;5021318;28;20112;-58
2022/08/13 02:51:13;;;;;;;3.00;2.33;;;;;;;16.63;100.00;164916.41;5019130;28;20489;-58
2022/08/13 02:53:39;;;;;;;3.00;2.00;;;;;;;16.53;100.00;164889.28;5019274;28;20040;-58
2022/08/13 02:56:08;;;;;;;4.72;1.75;;;;;;;16.48;100.00;164877.13;5019928;28;20542;-58
2022/08/13 02:58:34;;;;;;;1.83;1.73;;;;;;;16.43;100.00;164863.56;5020439;28;20026;-57
2022/08/13 03:01:02;;;;;;;4.43;1.60;;;;;;;16.37;100.00;164847.31;5017472;28;21408;-58
2022/08/13 03:03:28;;;;;;;1.80;1.70;;;;;;;16.36;100.00;164844.59;5018760;28;20021;-58
2022/08/13 03:05:54;;;;;;;3.78;1.92;;;;;;;16.33;100.00;164837.84;5018874;28;20634;-58
2022/08/13 03:08:19;;;;;;;4.03;2.42;;;;;;;16.33;100.00;164836.50;5018184;28;20076;-58
2022/08/13 03:10:45;;;;;;;4.25;2.10;;;;;;;16.33;100.00;164837.84;5019140;28;20033;-57
2022/08/13 03:13:16;;;;;;;2.58;1.83;;;;;;;16.34;100.00;164839.22;5023667;28;20021;-58
2022/08/13 03:15:44;;;;;;;7.93;2.53;;;;;;;16.31;100.00;164831.06;5023126;28;20060;-58
2022/08/13 03:18:10;;;;;;;5.53;1.67;;;;;;;16.30;100.00;164828.34;5023817;28;20030;-58
2022/08/13 03:20:36;;;;;;;4.22;1.90;;;;;;;16.27;100.00;164820.25;5021779;28;20038;-58
2022/08/13 03:23:01;;;;;;;4.15;2.00;;;;;;;16.25;100.00;164814.81;5024659;28;20032;-58
2022/08/13 03:25:28;;;;;;;1.90;1.80;;;;;;;16.23;100.00;164809.41;5021284;28;20062;-57
2022/08/13 03:27:54;;;;;;;3.30;2.03;;;;;;;16.17;100.00;164795.88;5023513;28;20439;-57
2022/08/13 03:30:23;;;;;;;3.13;2.88;;;;;;;16.22;100.00;164806.69;5022237;28;20080;-58
2022/08/13 03:32:50;;;;;;;4.93;3.00;;;;;;;16.21;100.00;164803.97;5026009;28;20029;-58
2022/08/13 03:35:18;;;;;;;2.75;2.22;;;;;;;16.19;100.00;164799.91;5012987;28;20409;-58
2022/08/13 03:37:47;;;;;;;2.08;1.88;;;;;;;16.18;100.00;164798.56;5013825;28;20026;-58
2022/08/13 03:40:13;;;;;;;;;;;;;;;16.15;100.00;164790.44;5013552;28;20100;-58
2022/08/13 03:42:40;;;;;;;4.45;2.20;;;;;;;16.12;100.00;164782.28;5013900;28;19910;-58
2022/08/13 03:45:06;;;;;;;1.92;1.80;;;;;;;16.09;100.00;164774.19;5012330;28;20460;-57
2022/08/13 03:47:32;;;;;;;4.97;2.05;;;;;;;16.06;100.00;164766.03;5032045;28;20108;-58
2022/08/13 03:49:59;;;;;;;2.53;2.17;;;;;;;16.09;100.00;164774.19;5032298;28;20040;-58
2022/08/13 03:52:25;;;;;;;5.47;2.25;;;;;;;16.14;100.00;164787.72;5033343;28;20034;-58
2022/08/13 03:54:50;;;;;;;3.25;2.15;;;;;;;16.18;100.00;164798.56;5032380;28;20041;-57
2022/08/13 03:57:17;;;;;;;5.93;2.00;;;;;;;16.21;100.00;164805.34;5018932;28;20037;-57
2022/08/13 03:59:43;;;;;;;5.07;2.05;;;;;;;16.24;100.00;164812.09;5011858;28;20066;-58
2022/08/13 04:02:08;;;;;;;2.15;1.90;;;;;;;16.23;100.00;164810.78;5014111;28;20110;-57
2022/08/13 04:04:34;;;;;;;3.30;2.92;;;;;;;16.24;100.00;164812.09;5012399;28;20571;-58
2022/08/13 04:07:00;;;;;;;5.90;2.53;;;;;;;16.20;100.00;164802.63;5013265;28;20412;-58
2022/08/13 04:09:25;;;;;;;5.13;2.40;;;;;;;16.16;100.00;164793.16;5012257;28;20042;-58
2022/08/13 04:11:51;;;;;;;3.50;2.25;;;;;;;16.15;100.00;164789.09;5026622;28;20096;-57
2022/08/13 04:14:16;;;;;;;8.95;1.85;;;;;;;16.14;100.00;164787.72;5031650;28;20041;-58
2022/08/13 04:16:41;;;;;;;3.58;2.20;;;;;;;16.12;100.00;164782.28;5021358;28;20025;-57
2022/08/13 04:19:07;;;;;;;4.18;2.55;;;;;;;16.11;100.00;164778.25;5011965;28;20033;-57
2022/08/13 04:21:34;;;;;;;4.60;2.55;;;;;;;16.08;100.00;164770.16;5012476;28;20041;-58
2022/08/13 04:24:02;;;;;;;4.30;1.90;;;;;;;16.06;100.00;164764.72;5012106;28;20033;-58
2022/08/13 04:26:29;;;;;;;6.75;1.90;;;;;;;16.05;100.00;164763.31;5013204;28;20026;-57
2022/08/13 04:28:55;;;;;;;2.30;1.75;;;;;;;16.00;100.00;164749.81;5011356;28;20046;-57
2022/08/13 04:31:20;;;;;;;8.35;2.25;;;;;;;16.04;100.00;164759.28;5013163;28;20037;-58
2022/08/13 04:33:46;;;;;;;6.93;2.20;;;;;;;16.05;100.00;164763.31;5024555;28;20037;-58
2022/08/13 04:36:11;;;;;;;3.08;2.25;;;;;;;16.08;100.00;164771.47;5031059;28;20041;-58
2022/08/13 04:38:37;;;;;;;3.22;2.00;;;;;;;16.13;100.00;164783.66;5032931;28;20022;-58
2022/08/13 04:41:02;;;;;;;4.20;1.83;;;;;;;16.10;100.00;164776.91;5012090;28;20044;-58
2022/08/13 04:43:28;;;;;;;24.65;4.03;;;;;;;16.21;100.00;164803.97;5012678;28;20073;-58
2022/08/13 04:45:58;;;;;;;4.70;2.20;;;;;;;16.23;100.00;164809.41;5015939;28;20041;-58
2022/08/13 04:48:24;;;;;;;2.60;1.92;;;;;;;16.27;100.00;164820.25;5032600;28;20022;-58
2022/08/13 04:50:50;;;;;;;3.35;2.40;;;;;;;16.31;100.00;164832.41;5030892;28;20046;-57
2022/08/13 04:53:29;;;;;;;2.53;2.08;;;;;;;16.36;100.00;164844.59;5022662;28;20021;-58
2022/08/13 04:55:56;;;;;;;49.17;4.82;;;;;;;16.37;100.00;164847.31;5021580;28;20095;-58
2022/08/13 04:58:23;;;;;;;8.05;2.20;;;;;;;16.43;100.00;164863.56;5020660;28;20022;-58
2022/08/13 05:00:50;;;;;;;5.68;1.88;;;;;;;16.47;100.00;164874.41;5017879;28;20064;-58
2022/08/13 05:03:18;;;;;;;4.70;2.13;;;;;;;16.43;100.00;164863.56;5022807;28;20419;-58
2022/08/13 05:05:45;;;;;;;5.28;3.25;;;;;;;16.59;100.00;164904.19;5021168;28;20048;-58
2022/08/13 05:08:12;;;;;;;3.33;2.65;;;;;;;16.61;100.00;164909.63;5016456;28;20061;-58
2022/08/13 05:10:38;;;;;;;13.70;3.85;;;;;;;16.67;100.00;164925.88;5017626;28;20042;-58
2022/08/13 05:13:28;;;;;;;5.97;2.10;;;;;;;16.74;100.00;164944.84;5020170;28;20026;-58
2022/08/13 05:15:56;;;;;;;1.83;1.63;;;;;;;16.76;100.00;164950.28;5019840;28;20037;-58
2022/08/13 05:18:22;;;;;;;3.00;2.30;;;;;;;16.84;100.00;164970.56;5021152;28;20071;-57
2022/08/13 05:20:48;;;;;;;4.78;1.92;;;;;;;16.89;100.00;164982.78;5020813;28;20124;-58
2022/08/13 05:23:14;;;;;;;2.90;1.85;;;;;;;16.95;100.00;164999.06;5021512;28;20014;-58
2022/08/13 05:25:40;;;;;;;2.63;1.92;;;;;;;17.00;100.00;165011.28;5019582;28;20312;-57
2022/08/13 05:28:07;;;;;;;4.07;2.50;;;;;;;17.04;100.00;165023.47;5019275;28;20056;-58
2022/08/13 05:30:34;;;;;;;5.57;2.10;;;;;;;17.11;100.00;165042.44;5010555;28;20045;-58
2022/08/13 05:33:00;;;;;;;5.57;2.20;;;;;;;17.15;100.00;165051.94;5011928;28;20034;-58
2022/08/13 05:35:27;;;;;;;3.20;2.17;;;;;;;17.23;100.00;165073.63;5010108;28;20045;-58
2022/08/13 05:37:53;;;;;;;6.78;2.00;;;;;;;17.30;100.00;165091.25;5023008;28;20025;-57
2022/08/13 05:40:18;;;;;;;4.60;2.50;;;;;;;17.38;100.00;165112.94;5019137;28;20042;-57
2022/08/13 05:42:44;;;;;;;2.13;2.00;;;;;;;17.44;100.00;165129.19;5022059;28;20042;-57
2022/08/13 05:45:10;;;;;;;5.40;1.70;;;;;;;17.52;100.00;165148.16;5020404;28;20037;-57
2022/08/13 05:47:36;;;;;;;3.38;2.33;;;;;;;17.56;100.00;165159.00;5020561;28;20032;-58
2022/08/13 05:50:07;;;;;;;5.88;1.85;;;;;;;17.68;100.00;165190.16;5026960;28;20045;-58
2022/08/13 05:52:34;;;;;;;2.30;2.03;;;;;;;17.76;100.00;165213.19;5031196;28;20025;-58
2022/08/13 05:54:59;;;;;;;5.40;1.92;;;;;;;17.84;100.00;165233.56;5030206;28;20116;-57
2022/08/13 05:57:24;;;;;;;3.40;2.63;;;;;;;17.94;100.00;165257.97;5024443;28;20037;-58
2022/08/13 06:05:18;;;;;;;2.28;2.00;;;;;;;18.24;100.00;165338.00;5029766;28;20447;-58
2022/08/13 06:07:44;;;;;;;6.28;1.85;;;;;;;18.34;100.00;165365.13;5031174;28;20025;-58
2022/08/13 06:10:09;;;;;;;4.43;1.88;;;;;;;18.46;100.00;165394.94;5029883;28;20416;-58
2022/08/13 06:12:36;;;;;;;8.25;1.90;;;;;;;18.60;100.00;165432.91;5022587;28;20026;-58
2022/08/13 06:15:02;;;;;;;2.55;1.80;;;;;;;18.74;100.00;165469.53;5017764;28;20041;-58
2022/08/13 06:17:28;;;;;;;1.85;1.50;;;;;;;18.90;100.00;165511.56;5021655;28;20031;-58
2022/08/13 06:20:00;;;;;;;4.38;1.50;;;;;;;19.06;100.00;165553.69;5018745;28;20069;-58
2022/08/13 06:22:26;;;;;;;3.88;1.80;;;;;;;19.20;100.00;165590.28;5019835;28;20185;-58
2022/08/13 06:24:51;;;;;;;6.57;2.00;;;;;;;19.37;100.00;165635.03;5019799;28;20049;-58
2022/08/13 06:27:16;;;;;;;17.20;3.47;;;;;;;19.53;100.00;165677.13;5020439;28;20068;-58
2022/08/13 06:29:45;;;;;;;4.65;1.60;;;;;;;19.71;100.00;165724.63;5018183;28;20030;-58
2022/08/13 06:32:11;;;;;;;5.35;1.85;;;;;;;19.81;100.00;165750.41;5019924;28;20129;-57
2022/08/13 06:34:37;;;;;;;9.18;2.10;;;;;;;20.06;100.00;165815.59;5016113;28;20038;-58
2022/08/13 06:37:05;;;;;;;3.08;1.67;;;;;;;20.18;100.00;165846.84;5019933;28;20024;-57
2022/08/13 06:39:36;;;;;;;4.25;2.72;;;;;;;20.38;100.00;165901.13;5018213;28;20405;-57
2022/08/13 06:42:03;;;;;;;1.73;1.48;;;;;;;20.58;100.00;165952.69;5020401;28;20029;-57
2022/08/13 06:44:32;;;;;;;2.15;1.63;;;;;;;20.79;100.00;166007.03;5018870;28;20509;-57
2022/08/13 06:47:03;;;;;;;5.38;1.85;;;;;;;20.99;100.00;166059.97;5024294;28;20022;-58
2022/08/13 06:49:28;;;;;;;6.88;1.70;;;;;;;21.16;100.00;166106.16;5021617;28;20401;-58
2022/08/13 06:51:55;;;;;;;3.20;1.55;;;;;;;21.33;100.00;166149.63;5024553;28;20025;-58
2022/08/13 06:54:21;;;;;;;3.03;1.80;;;;;;;21.54;100.00;166206.69;5019764;28;20053;-58
2022/08/13 06:56:46;;;;;;;10.82;1.83;;;;;;;21.76;100.00;166263.78;5014870;28;20030;-58
2022/08/13 06:59:13;;;;;;;7.68;2.15;;;;;;;21.94;100.00;166309.94;5013693;28;20478;-58
2022/08/13 07:01:41;;;;;;;4.13;1.77;;;;;;;22.30;100.00;166405.06;5014668;28;20476;-58
2022/08/13 07:04:10;;;;;;;4.00;2.03;;;;;;;23.01;100.00;166592.63;5016224;28;20025;-58
2022/08/13 07:06:35;;;;;;;5.00;1.45;;;;;;;24.15;100.00;166891.88;5034357;28;20029;-58
2022/08/13 07:09:02;;;;;;;3.35;1.60;;;;;;;25.42;100.00;167226.63;5033075;28;20013;-58
2022/08/13 07:11:30;;;;;;;2.33;1.30;;;;;;;26.29;100.00;167458.06;5034162;28;20104;-58
2022/08/13 07:14:01;;;;;;;1.50;1.40;;;;;;;26.79;99.89;167588.78;5014548;28;20041;-58
2022/08/13 07:16:32;;;;;;;3.33;1.52;;;;;;;27.12;96.79;167675.97;5014479;28;20030;-57
2022/08/13 07:18:59;;;;;;;2.63;1.42;;;;;;;27.16;93.57;167686.81;5012759;28;20030;-58
2022/08/13 07:21:25;;;;;;;10.48;2.50;;;;;;;27.18;93.97;167692.28;5024912;28;20029;-58
2022/08/13 07:23:53;;;;;;;6.57;2.42;;;;;;;26.91;91.37;167621.50;5024065;28;20063;-58
2022/08/13 07:26:21;;;;;;;9.23;2.15;;;;;;;26.47;93.77;167504.34;5020439;28;20042;-59
2022/08/13 07:28:49;;;;;;;1.77;1.23;;;;;;;25.96;92.72;167370.84;5023764;28;20046;-58
2022/08/13 07:31:14;;;;;;;;;;;;;;;25.64;94.70;167286.50;5021022;28;20041;-58
2022/08/13 07:33:43;;;;;;;3.22;1.40;;;;;;;25.44;96.53;167232.03;5022712;28;19913;-58
2022/08/13 07:36:12;;;;;;;4.38;1.63;;;;;;;25.25;96.49;167183.03;5012638;28;20449;-58
2022/08/13 07:38:38;;;;;;;5.97;1.90;;;;;;;25.24;95.73;167180.28;5021158;28;20087;-58
2022/08/13 07:41:04;;;;;;;2.67;1.40;;;;;;;25.33;98.36;167204.78;5023349;28;20042;-58
2022/08/13 07:43:33;;;;;;;3.65;1.67;;;;;;;25.46;98.61;167238.88;5019822;28;20144;-58
2022/08/13 07:46:02;;;;;;;1.23;1.08;;;;;;;25.51;97.16;167251.09;5021994;28;20038;-58
2022/08/13 07:48:30;;;;;;;3.85;1.10;;;;;;;25.62;98.71;167281.03;5021661;28;20131;-58
2022/08/13 07:50:56;;;;;;;8.15;1.80;;;;;;;25.77;95.31;167319.16;5020425;28;20752;-58
2022/08/13 07:53:23;;;;;;;11.55;2.10;;;;;;;25.85;95.18;167339.53;5022067;28;20048;-58
2022/08/13 07:55:50;;;;;;;2.25;1.30;;;;;;;26.04;96.72;167389.91;5020656;28;20041;-58
2022/08/13 07:58:16;;;;;;;5.53;2.83;;;;;;;26.15;96.35;167419.94;5024593;28;20040;-58
2022/08/13 08:00:44;;;;;;;7.30;1.70;;;;;;;26.20;92.60;167433.53;5020811;28;20038;-58
2022/08/13 08:03:10;;;;;;;2.42;1.42;;;;;;;26.33;92.58;167466.19;5022935;28;20476;-58
2022/08/13 08:05:38;;;;;;;4.57;1.85;;;;;;;-146.58;100.00;69501.63;5022377;28;20040;-58
2022/08/13 08:08:04;;;;;;;1.80;1.45;;;;;;;26.33;92.58;415.34;5022759;28;20026;-58
2022/08/13 08:10:31;;;;;;;10.48;1.83;;;;;;;26.71;90.68;167568.34;5020926;28;20409;-58
2022/08/13 08:12:59;;;;;;;12.07;2.75;;;;;;;26.80;88.64;167591.50;5024525;28;20026;-58
2022/08/13 08:15:27;;;;;;;1.73;1.25;;;;;;;27.01;90.03;167645.97;5031609;28;20044;-58
2022/08/13 08:17:53;;;;;;;3.97;2.55;;;;;;;-146.58;100.00;69501.63;5033219;28;20108;-58
2022/08/13 08:20:23;;;;;;;10.93;1.52;;;;;;;27.41;86.14;167752.22;5031483;28;20063;-58
2022/08/13 08:22:50;;;;;;;5.80;1.23;;;;;;;27.57;85.72;167793.13;5031882;28;20393;-58
2022/08/13 08:25:17;;;;;;;1.73;0.85;;;;;;;27.71;85.71;167831.28;5023738;28;20456;-58
2022/08/13 08:27:43;;;;;;;14.52;1.90;;;;;;;27.86;85.43;167872.16;5016826;28;20056;-58
2022/08/13 08:30:09;;;;;;;3.08;1.77;;;;;;;28.09;86.59;167930.75;5025825;28;20041;-58
2022/08/13 08:32:36;;;;;;;12.43;1.73;;;;;;;28.32;84.79;167992.09;5032491;28;20052;-58
2022/08/13 08:35:02;;;;;;;3.72;1.05;;;;;;;28.69;79.81;168090.25;5012964;28;20048;-58
2022/08/13 08:43:03;;;;;;;4.50;1.38;;;;;;;29.37;77.97;168268.84;5013061;28;20084;-58
2022/08/13 08:45:29;;;;;;;6.63;1.67;;;;;;;29.43;75.53;168285.19;5011470;28;20125;-58
2022/08/13 08:47:54;;;;;;;3.90;1.35;;;;;;;29.49;75.89;168300.19;5012810;28;20117;-58
2022/08/13 08:50:22;;;;;;;5.88;1.73;;;;;;;29.49;74.39;168300.19;5011295;28;20516;-58
2022/08/13 08:55:36;;;;;;;5.83;1.57;;;;;;;29.30;72.93;168251.09;5029639;28;19920;-58
2022/08/13 08:58:02;;;;;;;;;;;;;;;29.24;72.27;168234.69;5013564;28;20065;-58
2022/08/13 09:00:27;;;;;;;10.80;1.15;;;;;;;29.23;69.78;168233.34;5011137;28;19945;-58
2022/08/13 09:02:54;;;;;;;6.10;2.08;;;;;;;29.23;72.57;168231.97;5012318;28;20635;-58
2022/08/13 09:05:25;;;;;;;2.28;1.60;;;;;;;29.51;71.15;168307.00;5026870;28;20048;-58
2022/08/13 09:07:52;;;;;;;5.10;1.60;;;;;;;29.46;69.55;168292.00;5031597;28;20032;-58
2022/08/13 09:10:20;;;;;;;1.27;1.02;;;;;;;29.63;69.39;168338.38;5030680;28;20038;-58
2022/08/13 09:12:47;;;;;;;4.50;1.42;;;;;;;29.90;67.19;168409.25;5032209;28;20029;-58
2022/08/13 09:15:17;;;;;;;6.78;1.50;;;;;;;30.05;63.11;168450.19;5030628;28;20037;-58
2022/08/13 09:17:43;;;;;;;3.17;1.27;;;;;;;30.30;64.91;168515.66;5031847;28;20116;-58
2022/08/13 09:20:12;;;;;;;3.90;0.90;;;;;;;30.54;63.34;168579.81;5025163;28;20061;-58
2022/08/13 09:22:42;;;;;;;2.55;1.30;;;;;;;30.82;60.24;168652.09;5012350;28;20883;-58
2022/08/13 09:25:09;;;;;;;6.70;1.70;;;;;;;31.13;59.41;168734.00;5010702;28;20076;-58
2022/08/13 09:27:35;;;;;;;;;;;;;;;31.24;58.38;168764.00;5029202;28;20136;-58
2022/08/13 09:30:08;;;;;;;1.25;1.15;;;;;;;31.33;57.25;168788.56;5047307;28;21228;-58
2022/08/13 09:32:33;;;;;;;4.82;1.38;;;;;;;31.50;57.72;168832.22;5028216;28;20042;-58
2022/08/13 09:35:00;;;;;;;4.78;1.40;;;;;;;31.57;57.54;168850.00;5027177;28;20045;-58
2022/08/13 09:37:27;;;;;;;2.05;1.80;;;;;;;31.21;59.86;168755.84;5028600;28;20033;-58
2022/08/13 09:39:54;;;;;;;9.17;1.87;;;;;;;31.29;55.44;168777.66;5026590;28;20061;-58
2022/08/13 09:42:32;;;;;;;;;;;;;;;31.37;56.45;168796.78;5028684;28;20456;-58
2022/08/13 09:44:59;;;;;;;4.60;1.50;;;;;;;31.52;55.54;168837.69;5027069;28;20080;-58
2022/08/13 09:47:25;;;;;;;6.63;1.42;;;;;;;31.45;55.15;168819.94;5027555;28;20053;-58
2022/08/13 09:49:51;;;;;;;3.13;0.88;;;;;;;31.54;54.51;168843.13;5026757;28;20099;-58
2022/08/13 09:52:17;;;;;;;6.80;1.60;;;;;;;31.38;54.34;168799.50;5028294;28;20021;-58
2022/08/13 09:54:43;;;;;;;2.55;0.80;;;;;;;31.43;51.82;168813.13;5026141;28;20401;-58
2022/08/13 09:57:09;;;;;;;4.00;1.50;;;;;;;31.50;52.19;168832.22;5027798;28;20040;-58
2022/08/13 09:59:35;;;;;;;0.93;0.70;;;;;;;31.45;52.42;168818.59;5026420;28;20462;-58
2022/08/13 10:02:05;;;;;;;1.23;0.90;;;;;;;31.46;50.62;168822.69;5027304;28;20025;-58
2022/08/13 10:04:32;;;;;;;1.30;1.20;;;;;;;31.61;51.62;168862.22;5026380;28;20172;-58
2022/08/13 10:06:58;;;;;;;1.13;1.10;;;;;;;31.66;51.23;168873.22;5028107;28;20017;-57
2022/08/13 10:09:26;;;;;;;6.88;1.27;;;;;;;31.85;51.97;168925.06;5026170;28;20114;-58
2022/08/13 10:11:55;;;;;;;2.00;0.95;;;;;;;32.00;53.34;168963.25;5027844;28;20493;-58
2022/08/13 10:14:20;;;;;;;1.70;1.45;;;;;;;32.04;49.87;168975.53;5026265;28;20084;-58
2022/08/13 10:16:46;;;;;;;7.30;1.42;;;;;;;32.03;49.76;168971.47;5027405;28;20030;-58
2022/08/13 10:19:11;;;;;;;4.63;1.48;;;;;;;32.22;49.42;169023.34;5025855;28;20029;-58
2022/08/13 10:21:37;;;;;;;10.13;2.20;;;;;;;32.12;49.50;168996.03;5027486;28;20026;-58
2022/08/13 10:24:04;;;;;;;1.45;1.30;;;;;;;32.04;49.77;168974.19;5026103;28;20378;-58
2022/08/13 10:26:29;;;;;;;2.55;1.40;;;;;;;31.85;48.76;168925.06;5027040;28;20093;-58
2022/08/13 10:28:54;;;;;;;3.38;1.60;;;;;;;32.10;48.21;168990.56;5016752;28;20045;-58
2022/08/13 10:31:20;;;;;;;7.13;1.58;;;;;;;31.95;48.75;168952.38;5005568;28;20041;-58
2022/08/13 10:33:47;;;;;;;2.47;1.30;;;;;;;31.85;48.14;168925.06;5007897;28;20026;-58
2022/08/13 10:36:14;;;;;;;3.47;1.65;;;;;;;31.95;46.86;168952.38;5006284;28;20038;-58
2022/08/13 10:38:40;;;;;;;2.42;1.20;;;;;;;31.86;46.20;168927.78;5007296;28;20022;-58
2022/08/13 10:41:07;;;;;;;0.98;0.90;;;;;;;32.04;45.86;168974.19;4995177;28;20043;-58
2022/08/13 10:43:39;;;;;;;2.55;1.13;;;;;;;32.01;45.61;168966.00;4994223;28;20474;-58
2022/08/13 10:46:07;;;;;;;9.95;1.50;;;;;;;32.16;45.88;169006.94;4992591;28;20042;-58
2022/08/13 10:48:32;;;;;;;9.35;1.13;;;;;;;32.51;45.76;169098.44;4994508;28;20084;-58
2022/08/13 10:50:58;;;;;;;1.00;1.00;;;;;;;32.43;44.60;169078.00;4992964;28;20046;-58
2022/08/13 10:56:11;;;;;;;3.08;1.50;;;;;;;32.40;45.72;169069.78;4992234;28;20110;-58
2022/08/13 10:58:37;;;;;;;1.40;1.30;;;;;;;32.51;46.18;169099.78;4994150;28;20049;-58
2022/08/13 11:01:05;;;;;;;5.15;1.20;;;;;;;32.48;45.73;169090.22;4992105;28;20418;-58
2022/08/13 11:03:31;;;;;;;2.25;1.23;;;;;;;32.28;41.64;169039.72;4994019;28;20030;-58
2022/08/13 11:06:00;;;;;;;3.33;1.15;;;;;;;32.37;41.83;169061.56;4992644;28;20137;-58
2022/08/13 11:08:28;;;;;;;5.60;1.42;;;;;;;32.07;42.50;168983.75;4993611;28;20028;-58
2022/08/13 11:10:54;;;;;;;4.88;1.40;;;;;;;32.08;41.54;168986.50;4992667;28;20046;-58
2022/08/13 11:13:19;;;;;;;1.67;1.13;;;;;;;32.17;42.11;169009.69;4993400;28;20041;-58
2022/08/13 11:15:44;;;;;;;3.10;1.25;;;;;;;32.24;42.73;169027.50;4992310;28;20405;-58
2022/08/13 11:18:10;;;;;;;2.67;1.10;;;;;;;32.39;43.16;169067.03;4993965;28;20026;-58
2022/08/13 11:21:02;;;;;;;1.60;1.40;;;;;;;32.54;42.62;169108.00;4991911;28;20038;-58
2022/08/13 11:23:21;;;;;;;2.45;1.00;;;;;;;32.52;42.82;169102.50;4993187;28;20046;-58
2022/08/13 11:25:46;;;;;;;4.32;1.65;;;;;;;32.55;42.08;169110.72;4992180;28;20101;-58
2022/08/13 11:28:15;;;;;;;1.70;0.98;;;;;;;32.73;43.37;169158.50;4993317;28;20073;-58
2022/08/13 11:30:40;;;;;;;2.42;1.38;;;;;;;32.70;44.51;169148.94;4991788;28;20069;-58
2022/08/13 11:33:06;;;;;;;7.53;1.70;;;;;;;32.55;42.41;169110.72;4993767;28;20059;-58
2022/08/13 11:35:33;;;;;;;2.08;1.08;;;;;;;32.39;43.13;169068.38;4992041;28;20034;-58
2022/08/13 11:38:04;;;;;;;;;;;;;;;32.50;43.08;169097.09;4993903;28;20033;-58
2022/08/13 11:40:30;;;;;;;2.42;1.60;;;;;;;32.69;43.89;169146.22;4991476;28;19922;-58
2022/08/13 11:42:55;;;;;;;5.78;1.92;;;;;;;32.45;42.89;169082.06;4993402;28;20026;-58
2022/08/13 11:45:20;;;;;;;2.47;1.30;;;;;;;32.28;41.65;169039.72;4991446;28;20054;-58
2022/08/13 11:47:46;;;;;;;1.65;1.30;;;;;;;32.12;43.34;168997.38;4993130;28;20038;-58
2022/08/13 11:50:11;;;;;;;3.60;1.25;;;;;;;32.23;41.82;169024.75;4991370;28;20045;-57